Fairbanks International, AK

12:43 AM AKST on March 04, 2015 (GMT -0900)
19th and Kennedy | Change Station
CLOSE
Current Station
Personal Weather Station
Location: Fairbanks, AK
Elevation: 440 ft
Nearby Weather Stations

Elev 440 ft 64.83 °N, 147.80 °W | Updated 14 minutes ago

Overcast
Overcast
25.2 °F
Feels Like 25 °F
N
0.0
Wind Variable Wind from WSW

Today
High -- | Low -- °F
--% Chance of Precip.
Yesterday
High -- | Low -- °F
Precip. -- in
7:50 AM 6:17 PM
Waxing Gibbous, 98% visible
Pressure 29.95 in
Visibility 10.0 miles
Clouds Scattered Clouds 2000 ft
Mostly Cloudy 4500 ft
Overcast 6500 ft
Windchill 25 °F
Dew Point 24 °F
Humidity 97%
Rainfall 0.00 in
Snow Depth Not available.
UV 0 out of 12
Pollen Not available.
Air Quality Not available.
Flu Activity Not available.
METAR PAFA 040853Z 00000KT 10SM SCT020 BKN045 OVC065 M03/M06 A2992 RMK AO2 SNE20 SLP142 T10331056 410281172 53001

More Conditions Fewer Conditions

Pressure 29.95 in
Visibility 10.0 miles
Clouds Scattered Clouds 2000 ft
Mostly Cloudy 4500 ft
Overcast 6500 ft
Windchill 25 °F
Dew Point 24 °F
Humidity 97%
Rainfall 0.00 in
Snow Depth Not available.
UV 0 out of 12
Pollen Not available.
Air Quality Not available.
Flu Activity Not available.
METAR PAFA 040853Z 00000KT 10SM SCT020 BKN045 OVC065 M03/M06 A2992 RMK AO2 SNE20 SLP142 T10331056 410281172 53001

More Conditions Fewer Conditions

10-Day Weather Forecast

Almanac

Astronomy

Mar. 04, 2015 Rise Set
Actual Time
Civil Twilight
Nautical Twilight
Astronomical Twilight
Moon
Length of Visible Light
Length of Day
Tomorrow will be .
, % of the Moon is Illuminated

Today's Extremes

State Highs State Lows

Community

WunderPhotos

Upload Photos

1,802,425 photos uploaded!

WunderBlogs® & News

Nearby

Air Quality

  Air Quality AQ Index Pollutant
Not available.

Snow Depth

Station Depth Elevation

Earthquake Activity

City Distance Mag. Time & Date
Minimum magnitude displayed is 2.5.

Coastal Water Temperatures

Place Temperature

Nearby Weather Stations